Terminal Aerodrome Forecast
Issued by NWS

Home | Current Version | Previous Version | Text Only | Print | Product List | Glossary On
Versions: 1 2 3 4 5 6 7 8 9 10 11 12 13
000
FTUS45 KPSR 152300
TAFIPL
TAF
KIPL 152328Z 1600/1624 24006KT P6SM FEW090
     FM160900 VRB04KT P6SM BKN250
     FM161400 14012KT P6SM SCT035 BKN080=

USA.gov is the U.S. government's official web portal to all federal, state and local government web resources and services.